Time;durP1;ratioP1;P1;durP2;ratioP2;P2;SDS_P1;SDS_P2;PMS_P1;PMS_P2;Temp;Humidity;BMP_temperature;BMP_pressure;BME280_temperature;BME280_humidity;BME280_pressure;Samples;Min_cycle;Max_cycle;Signal;HPM_P1;HPM_P2
2023/03/05 00:02:09;;;;;;;11.88;2.75;;;;;;;-146.27;100.00;48395.59;5080009;28;20024;-68
2023/03/05 00:04:35;;;;;;;7.85;2.83;;;;;;;-146.27;100.00;48375.69;5089107;28;20074;-68
2023/03/05 00:07:00;;;;;;;14.48;3.17;;;;;;;-146.27;100.00;48363.75;5076405;28;20020;-68
2023/03/05 00:09:26;;;;;;;6.15;2.53;;;;;;;-146.27;100.00;48403.56;5075071;28;20491;-66
2023/03/05 00:11:51;;;;;;;7.93;2.75;;;;;;;-146.27;100.00;48399.59;5073109;28;20027;-66
2023/03/05 00:14:16;;;;;;;8.20;2.63;;;;;;;-146.27;100.00;48375.69;5082775;28;20024;-67
2023/03/05 00:16:42;;;;;;;13.07;3.30;;;;;;;-146.27;100.00;48373.69;5075794;28;20051;-66
2023/03/05 00:19:09;;;;;;;16.52;2.88;;;;;;;-146.27;100.00;48375.69;5085397;28;20115;-67
2023/03/05 00:21:40;;;;;;;8.68;2.50;;;;;;;-146.27;100.00;48367.72;5090273;28;20030;-67
2023/03/05 00:24:10;;;;;;;6.63;2.10;;;;;;;-146.27;100.00;48391.63;5088375;28;20028;-66
2023/03/05 00:26:37;;;;;;;6.70;2.58;;;;;;;-146.27;100.00;48383.66;5087047;28;20118;-67
2023/03/05 00:29:03;;;;;;;5.28;2.63;;;;;;;-146.27;100.00;48399.59;5092333;28;20038;-66
2023/03/05 00:31:30;;;;;;;9.98;2.63;;;;;;;-146.27;100.00;48409.53;5091554;28;20344;-67
2023/03/05 00:34:02;;;;;;;10.18;2.63;;;;;;;-146.27;100.00;48411.53;5088269;28;20024;-66
2023/03/05 00:36:28;;;;;;;6.97;2.17;;;;;;;-146.27;100.00;48355.78;5088143;28;20032;-66
2023/03/05 00:38:53;;;;;;;10.77;2.70;;;;;;;-146.27;100.00;48399.59;5092239;28;20024;-66
2023/03/05 00:41:19;;;;;;;8.55;2.20;;;;;;;-146.27;100.00;48379.66;5089550;28;20038;-67
2023/03/05 00:43:44;;;;;;;12.63;2.85;;;;;;;-146.27;100.00;48395.59;5077702;28;20466;-66
2023/03/05 00:46:09;;;;;;;9.38;2.30;;;;;;;-146.27;100.00;48419.50;5087233;28;20020;-66
2023/03/05 00:48:35;;;;;;;7.60;2.15;;;;;;;-146.27;100.00;48373.69;5077221;28;20023;-67
2023/03/05 00:51:00;;;;;;;8.20;2.30;;;;;;;-146.27;100.00;48359.75;5082427;28;20024;-68
2023/03/05 00:53:26;;;;;;;13.50;2.85;;;;;;;-146.27;100.00;48401.56;5083759;28;20116;-67
2023/03/05 00:55:51;;;;;;;8.05;2.45;;;;;;;-146.27;100.00;48363.75;5091850;28;20028;-67
2023/03/05 00:58:17;;;;;;;8.27;2.40;;;;;;;-146.27;100.00;48419.50;5087439;28;20020;-67
2023/03/05 01:00:42;;;;;;;12.30;2.28;;;;;;;-146.27;100.00;48377.69;5092138;28;20081;-67
2023/03/05 01:03:08;;;;;;;10.73;2.80;;;;;;;-146.27;100.00;48377.69;5091061;28;20419;-67
2023/03/05 01:05:33;;;;;;;11.25;2.10;;;;;;;-146.27;100.00;48383.66;5086953;28;20047;-67
2023/03/05 01:07:59;;;;;;;7.72;2.13;;;;;;;-146.27;100.00;48417.50;5089546;28;20434;-66
2023/03/05 01:10:31;;;;;;;6.60;2.25;;;;;;;-146.27;100.00;48403.56;5089614;28;20020;-66
2023/03/05 01:12:56;;;;;;;10.95;2.05;;;;;;;-146.27;100.00;48391.63;5087195;28;20080;-66
2023/03/05 01:15:23;;;;;;;8.95;1.90;;;;;;;-146.27;100.00;48415.53;5083255;28;20431;-69
2023/03/05 01:17:48;;;;;;;6.43;1.55;;;;;;;-146.27;100.00;48397.59;5095308;28;20421;-66
2023/03/05 01:20:15;;;;;;;9.75;1.90;;;;;;;-146.27;100.00;48411.53;5093577;28;20111;-67
2023/03/05 01:22:41;;;;;;;12.65;1.55;;;;;;;-146.27;100.00;48371.69;5092949;28;20035;-67
2023/03/05 01:25:07;;;;;;;6.72;1.50;;;;;;;-146.27;100.00;48379.66;5081299;28;20130;-67
2023/03/05 01:27:32;;;;;;;6.35;1.90;;;;;;;-146.27;100.00;48373.69;5095730;28;20042;-66
2023/03/05 01:29:58;;;;;;;8.27;1.73;;;;;;;-146.27;100.00;48381.66;5084824;28;20047;-68
2023/03/05 01:32:23;;;;;;;6.03;1.75;;;;;;;-146.27;100.00;48373.69;5095319;28;20032;-67
2023/03/05 01:34:49;;;;;;;4.43;1.40;;;;;;;-146.27;100.00;48393.63;5093099;28;20037;-67
2023/03/05 01:37:14;;;;;;;5.65;1.52;;;;;;;-146.27;100.00;48387.63;5080950;28;20486;-66
2023/03/05 01:39:39;;;;;;;8.70;1.95;;;;;;;-146.27;100.00;48387.63;5092089;28;20473;-67
2023/03/05 01:42:05;;;;;;;6.85;1.60;;;;;;;-146.27;100.00;48421.50;5095638;28;20055;-67
2023/03/05 01:44:31;;;;;;;4.20;1.45;;;;;;;-146.27;100.00;48399.59;5080142;28;20032;-67
2023/03/05 01:46:56;;;;;;;7.43;1.85;;;;;;;-146.27;100.00;48409.53;5094600;28;20016;-67
2023/03/05 01:49:35;;;;;;;2.42;1.00;;;;;;;-146.27;100.00;48363.75;5091859;28;20028;-67
2023/03/05 01:52:20;;;;;;;9.32;1.27;;;;;;;-146.27;100.00;48375.69;5093285;28;20269;-66
2023/03/05 01:54:51;;;;;;;6.93;1.73;;;;;;;-146.27;100.00;48375.69;5089953;28;20020;-67
2023/03/05 01:57:23;;;;;;;6.30;1.00;;;;;;;-146.27;100.00;48375.69;5092434;28;20039;-67
2023/03/05 01:59:54;;;;;;;8.23;1.08;;;;;;;-146.27;100.00;48385.66;5094985;28;20024;-67
2023/03/05 02:02:23;;;;;;;6.55;1.23;;;;;;;-146.27;100.00;48403.56;5095476;28;20032;-68
2023/03/05 02:04:56;;;;;;;5.72;1.17;;;;;;;-146.27;100.00;48367.72;5092910;28;20044;-66
2023/03/05 02:07:22;;;;;;;2.58;0.88;;;;;;;-146.27;100.00;48367.72;5088629;28;20021;-67
2023/03/05 02:09:48;;;;;;;10.07;1.52;;;;;;;-146.27;100.00;48375.69;5093629;28;20020;-66
2023/03/05 02:12:14;;;;;;;10.27;1.15;;;;;;;-146.27;100.00;48407.56;5092716;28;20024;-67
2023/03/05 02:14:42;;;;;;;3.63;0.80;;;;;;;-146.27;100.00;48381.66;5094992;28;20097;-67
2023/03/05 02:17:09;;;;;;;8.70;1.45;;;;;;;-146.27;100.00;48343.81;5085630;28;20048;-67
2023/03/05 02:19:52;;;;;;;5.88;1.55;;;;;;;-146.27;100.00;48383.66;5088535;28;20027;-67
2023/03/05 02:22:20;;;;;;;5.87;1.07;;;;;;;-146.27;100.00;48397.59;5093332;28;20027;-67
2023/03/05 02:24:45;;;;;;;1.33;0.75;;;;;;;-146.27;100.00;48371.69;5094770;28;20103;-67
2023/03/05 02:27:12;;;;;;;2.55;0.93;;;;;;;-146.27;100.00;48403.56;5092128;28;20026;-69
2023/03/05 02:29:43;;;;;;;9.38;1.20;;;;;;;-146.27;100.00;48411.53;5093065;28;20483;-68
2023/03/05 02:32:09;;;;;;;2.55;1.10;;;;;;;-146.27;100.00;48423.50;5091109;28;20422;-66
2023/03/05 02:34:35;;;;;;;7.57;1.08;;;;;;;-146.27;100.00;48397.59;5091920;28;20068;-66
2023/03/05 02:37:03;;;;;;;6.93;1.02;;;;;;;-146.27;100.00;48363.75;5074496;28;20028;-67
2023/03/05 02:39:30;;;;;;;7.32;1.33;;;;;;;-146.27;100.00;48399.59;5092621;28;20028;-66
2023/03/05 02:41:55;;;;;;;10.50;1.60;;;;;;;-146.27;100.00;48383.66;5083257;28;20396;-66
2023/03/05 02:44:21;;;;;;;13.52;2.40;;;;;;;-146.27;100.00;48399.59;5089688;28;20035;-67
2023/03/05 02:46:46;;;;;;;6.18;1.30;;;;;;;-146.27;100.00;48431.47;5093309;28;20026;-66
2023/03/05 02:49:12;;;;;;;7.13;1.05;;;;;;;-146.27;100.00;48405.56;5093792;28;20047;-67
2023/03/05 02:51:37;;;;;;;5.50;1.35;;;;;;;-146.27;100.00;48351.78;5094347;28;20035;-66
2023/03/05 02:54:03;;;;;;;14.05;1.40;;;;;;;-146.27;100.00;48411.53;5093940;28;20383;-67
2023/03/05 02:56:28;;;;;;;6.95;1.70;;;;;;;-146.27;100.00;48399.59;5090421;28;20070;-68
2023/03/05 02:58:53;;;;;;;8.13;1.30;;;;;;;-146.27;100.00;48401.56;5086643;28;20032;-67
2023/03/05 03:01:19;;;;;;;5.38;1.23;;;;;;;-146.27;100.00;48401.56;5094001;28;20547;-67
2023/03/05 03:03:44;;;;;;;13.15;1.52;;;;;;;-146.27;100.00;48417.50;5089665;28;20738;-67
2023/03/05 03:06:09;;;;;;;9.90;1.50;;;;;;;-146.27;100.00;48423.50;5093456;28;20406;-66
2023/03/05 03:08:35;;;;;;;7.68;1.33;;;;;;;-146.27;100.00;48379.66;5086499;28;20040;-67
2023/03/05 03:11:08;;;;;;;8.88;1.70;;;;;;;-146.27;100.00;48435.44;5094129;28;20391;-68
2023/03/05 03:13:33;;;;;;;2.85;1.08;;;;;;;-146.27;100.00;48375.69;5093532;28;20071;-67
2023/03/05 03:16:08;;;;;;;6.38;1.20;;;;;;;-146.27;100.00;48411.53;5093973;28;20059;-67
2023/03/05 03:18:34;;;;;;;6.68;1.27;;;;;;;-146.27;100.00;48403.56;5081178;28;20031;-68
2023/03/05 03:20:59;;;;;;;12.48;1.40;;;;;;;-146.27;100.00;48435.44;5090585;28;20020;-68
2023/03/05 03:23:25;;;;;;;14.90;1.70;;;;;;;-146.27;100.00;48405.56;5089911;28;20036;-67
2023/03/05 03:25:51;;;;;;;9.57;1.27;;;;;;;-146.27;100.00;48365.72;5093148;28;20020;-67
2023/03/05 03:28:16;;;;;;;8.93;1.15;;;;;;;-146.27;100.00;48381.66;5079392;28;20442;-68
2023/03/05 03:30:41;;;;;;;5.88;1.40;;;;;;;-146.27;100.00;48409.53;5085606;28;20028;-68
2023/03/05 03:33:07;;;;;;;7.68;1.70;;;;;;;-146.27;100.00;48423.50;5074068;28;20060;-66
2023/03/05 03:35:32;;;;;;;8.27;1.30;;;;;;;-146.27;100.00;48387.63;5090482;28;20494;-66
2023/03/05 03:37:57;;;;;;;7.03;1.30;;;;;;;-146.27;100.00;48435.44;5092645;28;20032;-66
2023/03/05 03:40:23;;;;;;;2.97;1.10;;;;;;;-146.27;100.00;48389.63;5075056;28;20064;-67
2023/03/05 03:42:51;;;;;;;8.85;1.42;;;;;;;-146.27;100.00;48379.66;5072954;28;20035;-66
2023/03/05 03:45:16;;;;;;;3.15;1.13;;;;;;;-146.27;100.00;48421.50;5086795;28;20372;-68
2023/03/05 03:47:41;;;;;;;6.53;1.35;;;;;;;-146.27;100.00;48447.38;5089810;28;20031;-67
2023/03/05 03:50:09;;;;;;;5.75;2.00;;;;;;;-146.27;100.00;48373.69;5089914;28;20055;-67
2023/03/05 03:52:34;;;;;;;8.00;2.05;;;;;;;-146.27;100.00;48361.75;5089719;28;20052;-68
2023/03/05 03:55:00;;;;;;;4.68;1.20;;;;;;;-146.27;100.00;48387.63;5086744;28;20023;-67
2023/03/05 03:57:30;;;;;;;5.60;1.13;;;;;;;-146.27;100.00;48369.72;5085525;28;20028;-68
2023/03/05 03:59:55;;;;;;;4.32;0.95;;;;;;;-146.27;100.00;48383.66;5090720;28;20039;-67
2023/03/05 04:02:21;;;;;;;5.95;1.45;;;;;;;-146.27;100.00;48401.56;5092479;28;20023;-67
2023/03/05 04:04:46;;;;;;;7.65;1.35;;;;;;;-146.27;100.00;48379.66;5090236;28;20058;-66
2023/03/05 04:07:12;;;;;;;6.80;1.30;;;;;;;-146.27;100.00;48367.72;5087327;28;20509;-67
2023/03/05 04:09:37;;;;;;;9.95;1.60;;;;;;;-146.27;100.00;48391.63;5091105;28;20024;-66
2023/03/05 04:12:03;;;;;;;3.33;1.15;;;;;;;-146.27;100.00;48395.59;5090538;28;20027;-65
2023/03/05 04:14:28;;;;;;;7.00;1.20;;;;;;;-146.27;100.00;48413.53;5081077;28;20427;-67
2023/03/05 04:16:54;;;;;;;8.27;1.40;;;;;;;-146.27;100.00;48409.53;5083773;28;20035;-66
2023/03/05 04:19:19;;;;;;;7.60;1.38;;;;;;;-146.27;100.00;48387.63;5087922;28;20027;-66
2023/03/05 04:21:45;;;;;;;10.20;1.75;;;;;;;-146.27;100.00;48397.59;5092396;28;20511;-67
2023/03/05 04:24:10;;;;;;;8.88;1.58;;;;;;;-146.27;100.00;48393.63;5090833;28;20012;-67
2023/03/05 04:26:35;;;;;;;4.22;1.52;;;;;;;-146.27;100.00;48379.66;5091602;28;20035;-67
2023/03/05 04:29:01;;;;;;;4.88;1.17;;;;;;;-146.27;100.00;48371.69;5089635;28;20061;-66
2023/03/05 04:31:26;;;;;;;2.40;1.20;;;;;;;-146.27;100.00;48429.47;5092087;28;20086;-66
2023/03/05 04:33:51;;;;;;;5.28;1.13;;;;;;;-146.27;100.00;48407.56;5086808;28;20016;-68
2023/03/05 04:36:17;;;;;;;4.45;1.20;;;;;;;-146.27;100.00;48383.66;5089319;28;20020;-68
2023/03/05 04:38:42;;;;;;;5.32;1.10;;;;;;;-146.27;100.00;48383.66;5087466;28;20078;-67
2023/03/05 04:41:08;;;;;;;7.80;1.15;;;;;;;-146.27;100.00;48403.56;5086894;28;20506;-66
2023/03/05 04:43:33;;;;;;;4.45;1.10;;;;;;;-146.27;100.00;48389.63;5080636;28;20153;-67
2023/03/05 04:45:58;;;;;;;6.40;1.50;;;;;;;-146.27;100.00;48439.41;5087423;28;20051;-68
2023/03/05 04:48:24;;;;;;;9.27;1.25;;;;;;;-146.27;100.00;48383.66;5091011;28;20059;-67
2023/03/05 04:50:49;;;;;;;4.45;1.15;;;;;;;-146.27;100.00;48389.63;5082982;28;20028;-67
2023/03/05 04:53:14;;;;;;;4.38;0.90;;;;;;;-146.27;100.00;48445.41;5086857;28;20110;-68
2023/03/05 04:55:40;;;;;;;7.47;1.65;;;;;;;-146.27;100.00;48365.72;5073785;28;20085;-66
2023/03/05 04:58:05;;;;;;;7.80;1.13;;;;;;;-146.27;100.00;48391.63;5073279;28;20062;-66
2023/03/05 05:00:30;;;;;;;6.60;1.27;;;;;;;-146.27;100.00;48419.50;5077060;28;20027;-67
2023/03/05 05:02:56;;;;;;;5.28;1.10;;;;;;;-146.27;100.00;48375.69;5074680;28;20031;-65
2023/03/05 05:05:24;;;;;;;3.00;0.82;;;;;;;-146.27;100.00;48395.59;5081833;28;20097;-65
2023/03/05 05:07:54;;;;;;;6.35;0.90;;;;;;;-146.27;100.00;48383.66;5087805;28;20036;-66
2023/03/05 05:10:19;;;;;;;4.15;0.85;;;;;;;-146.27;100.00;48367.72;5078632;28;20047;-67
2023/03/05 05:12:44;;;;;;;3.08;1.00;;;;;;;-146.27;100.00;48409.53;5088512;28;20028;-66
2023/03/05 05:15:11;;;;;;;2.08;1.00;;;;;;;-146.27;100.00;48387.63;5081424;28;20044;-66
2023/03/05 05:17:36;;;;;;;3.65;1.20;;;;;;;-146.27;100.00;48415.53;5072532;28;20020;-66
2023/03/05 05:20:05;;;;;;;7.03;1.20;;;;;;;-146.27;100.00;48387.63;5086064;28;20158;-67
2023/03/05 05:22:31;;;;;;;2.67;0.90;;;;;;;-146.27;100.00;48375.69;5083239;28;20050;-67
2023/03/05 05:24:56;;;;;;;2.00;0.80;;;;;;;-146.27;100.00;48407.56;5085742;28;20523;-67
2023/03/05 05:27:22;;;;;;;9.32;0.80;;;;;;;-146.27;100.00;48379.66;5091661;28;20023;-66
2023/03/05 05:29:49;;;;;;;4.45;0.93;;;;;;;-146.27;100.00;48415.53;5077664;28;20118;-67
2023/03/05 05:32:19;;;;;;;1.80;0.82;;;;;;;-146.27;100.00;48411.53;5089221;28;20169;-67
2023/03/05 05:34:44;;;;;;;4.03;0.80;;;;;;;-146.27;100.00;48401.56;5085462;28;20030;-67
2023/03/05 05:37:10;;;;;;;5.80;1.10;;;;;;;-146.27;100.00;48427.47;5085267;28;20028;-68
2023/03/05 05:39:35;;;;;;;3.80;0.80;;;;;;;-146.27;100.00;48399.59;5089016;28;20479;-67
2023/03/05 05:42:00;;;;;;;4.80;0.75;;;;;;;-146.27;100.00;48439.41;5079532;28;20384;-66
2023/03/05 05:44:26;;;;;;;6.55;1.05;;;;;;;-146.27;100.00;48381.66;5084316;28;20032;-68
2023/03/05 05:46:51;;;;;;;7.15;1.20;;;;;;;-146.27;100.00;48399.59;5088487;28;20021;-67
2023/03/05 05:49:17;;;;;;;5.18;0.80;;;;;;;-146.27;100.00;48407.56;5081111;28;20016;-67
2023/03/05 05:51:42;;;;;;;6.15;0.98;;;;;;;-146.27;100.00;48447.38;5088517;28;20051;-67
2023/03/05 05:54:11;;;;;;;3.47;0.93;;;;;;;-146.27;100.00;48423.50;5083468;28;20103;-67
2023/03/05 05:56:37;;;;;;;4.75;1.15;;;;;;;-146.27;100.00;48411.53;5085572;28;20028;-68
2023/03/05 05:59:02;;;;;;;3.42;1.10;;;;;;;-146.27;100.00;48423.50;5089678;28;20032;-68
2023/03/05 06:01:31;;;;;;;7.03;1.23;;;;;;;-146.27;100.00;48395.59;5081500;28;20031;-68
2023/03/05 06:03:56;;;;;;;4.10;1.13;;;;;;;-146.27;100.00;48419.50;5089453;28;20024;-67
2023/03/05 06:06:24;;;;;;;10.80;2.53;;;;;;;-146.27;100.00;48397.59;5087966;28;20033;-67
2023/03/05 06:08:50;;;;;;;2.70;1.20;;;;;;;-146.27;100.00;48435.44;5090892;28;20039;-67
2023/03/05 06:11:16;;;;;;;6.13;1.00;;;;;;;-146.27;100.00;48415.53;5093898;28;20466;-67
2023/03/05 06:13:42;;;;;;;1.65;0.98;;;;;;;-146.27;100.00;48411.53;5088649;28;20403;-68
2023/03/05 06:16:11;;;;;;;3.28;1.33;;;;;;;-146.27;100.00;48411.53;5097898;28;20020;-69
2023/03/05 06:18:36;;;;;;;9.25;0.80;;;;;;;-146.27;100.00;48363.75;5091225;28;20043;-68
2023/03/05 06:21:05;;;;;;;7.68;0.80;;;;;;;-146.27;100.00;48415.53;5094867;28;20020;-67
2023/03/05 06:23:31;;;;;;;2.97;0.80;;;;;;;-146.27;100.00;48373.69;5094379;28;20024;-67
2023/03/05 06:26:01;;;;;;;3.65;0.55;;;;;;;-146.27;100.00;48411.53;5111073;28;20035;-67
2023/03/05 06:28:27;;;;;;;9.85;1.00;;;;;;;-146.27;100.00;48427.47;5092760;28;20419;-67
2023/03/05 06:31:04;;;;;;;8.77;1.13;;;;;;;-146.27;100.00;48409.53;5094689;28;20055;-67
2023/03/05 06:33:30;;;;;;;2.65;0.40;;;;;;;-146.27;100.00;48419.50;5094591;28;20518;-68
2023/03/05 06:35:56;;;;;;;4.32;0.88;;;;;;;-146.27;100.00;48391.63;5094607;28;20051;-67
2023/03/05 06:38:21;;;;;;;2.80;0.75;;;;;;;-146.27;100.00;48441.41;5093771;28;20115;-68
2023/03/05 06:40:47;;;;;;;4.85;0.70;;;;;;;-146.27;100.00;48411.53;5097483;28;20032;-68
2023/03/05 06:43:12;;;;;;;0.73;0.35;;;;;;;-146.27;100.00;48403.56;5093528;28;20730;-68
2023/03/05 06:45:37;;;;;;;3.33;1.50;;;;;;;-146.27;100.00;48397.59;5081070;28;20380;-68
2023/03/05 06:48:03;;;;;;;2.88;0.80;;;;;;;-146.27;100.00;48391.63;5091811;28;20111;-69
2023/03/05 06:50:28;;;;;;;7.68;1.42;;;;;;;-146.27;100.00;48405.56;5094283;28;20032;-67
2023/03/05 06:52:54;;;;;;;0.75;0.47;;;;;;;-146.27;100.00;48411.53;5092977;28;20024;-68
2023/03/05 06:55:20;;;;;;;2.78;0.60;;;;;;;-146.27;100.00;48399.59;5093939;28;20031;-66
2023/03/05 06:57:45;;;;;;;7.80;1.63;;;;;;;-146.27;100.00;48407.56;5092842;28;20518;-68
2023/03/05 07:00:12;;;;;;;8.30;2.78;;;;;;;-146.27;100.00;48407.56;5091030;28;20118;-67
2023/03/05 07:02:37;;;;;;;4.28;1.52;;;;;;;-146.27;100.00;48383.66;5086152;28;20158;-67
2023/03/05 07:05:04;;;;;;;6.03;1.63;;;;;;;-146.27;100.00;48415.53;5090782;28;20480;-67
2023/03/05 07:07:31;;;;;;;9.05;2.10;;;;;;;-146.27;100.00;48415.53;5093237;28;20074;-67
2023/03/05 07:09:56;;;;;;;17.10;5.07;;;;;;;-146.27;100.00;48423.50;5093991;28;20312;-67
2023/03/05 07:12:21;;;;;;;8.70;1.65;;;;;;;-146.27;100.00;48423.50;5093217;28;20424;-68
2023/03/05 07:14:47;;;;;;;7.05;1.67;;;;;;;-146.27;100.00;48447.38;5092737;28;20032;-67
2023/03/05 07:17:14;;;;;;;8.45;1.83;;;;;;;-146.27;100.00;48435.44;5095361;28;20024;-68
2023/03/05 07:19:40;;;;;;;4.65;1.75;;;;;;;-146.27;100.00;48439.41;5091216;28;20024;-67
2023/03/05 07:22:06;;;;;;;8.07;1.90;;;;;;;-146.27;100.00;48413.53;5088567;28;20035;-69
2023/03/05 07:24:32;;;;;;;5.57;2.15;;;;;;;-146.27;100.00;48447.38;5077138;28;20078;-69
2023/03/05 07:26:58;;;;;;;4.15;1.10;;;;;;;-146.27;100.00;48387.63;5078772;28;20357;-68
2023/03/05 07:29:26;;;;;;;7.47;1.08;;;;;;;-146.27;100.00;48399.59;5083305;28;20036;-67
2023/03/05 07:31:51;;;;;;;5.15;1.05;;;;;;;-146.27;100.00;48391.63;5085527;28;20016;-68
2023/03/05 07:34:16;;;;;;;1.85;0.63;;;;;;;-146.27;100.00;48387.63;5090473;28;20043;-67
2023/03/05 07:36:42;;;;;;;4.68;0.75;;;;;;;-146.27;100.00;48423.50;5088738;28;20036;-69
2023/03/05 07:39:10;;;;;;;2.42;0.40;;;;;;;-146.27;100.00;48391.63;5089630;28;20487;-68
2023/03/05 07:41:35;;;;;;;2.55;0.85;;;;;;;-146.27;100.00;48423.50;5089887;28;20031;-69
2023/03/05 07:44:01;;;;;;;2.80;0.60;;;;;;;-146.27;100.00;48403.56;5088952;28;20024;-68
2023/03/05 07:46:30;;;;;;;2.60;0.70;;;;;;;-146.27;100.00;48399.59;5090217;28;20475;-71
2023/03/05 07:48:56;;;;;;;1.10;0.60;;;;;;;-146.27;100.00;48379.66;5089416;28;20471;-68
2023/03/05 07:51:24;;;;;;;2.05;0.50;;;;;;;-146.27;100.00;48439.41;5089805;28;20031;-69
2023/03/05 07:53:51;;;;;;;2.47;0.30;;;;;;;-146.27;100.00;48405.56;5088754;28;20030;-68
2023/03/05 07:56:24;;;;;;;2.30;0.60;;;;;;;-146.27;100.00;48403.56;5088178;28;20032;-69
2023/03/05 07:58:50;;;;;;;;;;;;;;;-146.27;100.00;48413.53;5092569;28;20031;-66
2023/03/05 08:01:16;;;;;;;3.05;1.13;;;;;;;-146.27;100.00;48403.56;5089373;28;20007;-68
2023/03/05 08:03:42;;;;;;;4.63;1.00;;;;;;;-146.27;100.00;48385.66;5092321;28;20024;-68
2023/03/05 08:06:09;;;;;;;1.10;0.63;;;;;;;-146.27;100.00;48409.53;5089878;28;20369;-68
2023/03/05 08:08:35;;;;;;;2.38;0.90;;;;;;;-146.27;100.00;48403.56;5088890;28;20028;-67
2023/03/05 08:11:04;;;;;;;3.85;0.70;;;;;;;-146.27;100.00;48397.59;5090527;28;20035;-69
2023/03/05 08:13:30;;;;;;;4.03;0.80;;;;;;;-146.27;100.00;48373.69;5091892;28;20428;-69
2023/03/05 08:15:55;;;;;;;3.40;0.60;;;;;;;-146.27;100.00;48401.56;5090604;28;20028;-68
2023/03/05 08:18:21;;;;;;;7.95;0.70;;;;;;;-146.27;100.00;48387.63;5091018;28;20024;-69
2023/03/05 08:20:46;;;;;;;0.88;0.50;;;;;;;-146.27;100.00;48361.75;5087916;28;20109;-69
2023/03/05 08:23:13;;;;;;;4.97;0.80;;;;;;;-146.27;100.00;48395.59;5088501;28;20021;-68
2023/03/05 08:25:38;;;;;;;1.88;0.60;;;;;;;-146.27;100.00;48387.63;5091314;28;20491;-67
2023/03/05 08:28:04;;;;;;;3.05;1.38;;;;;;;-146.27;100.00;48399.59;5089183;28;20024;-68
2023/03/05 08:30:29;;;;;;;4.43;0.88;;;;;;;-146.27;100.00;48391.63;5082792;28;20554;-68
2023/03/05 08:32:55;;;;;;;2.75;0.70;;;;;;;-146.27;100.00;48363.75;5084166;28;20055;-68
2023/03/05 08:35:21;;;;;;;5.13;0.80;;;;;;;-146.27;100.00;48427.47;5080216;28;20035;-69
2023/03/05 08:37:47;;;;;;;4.75;0.65;;;;;;;-146.27;100.00;48393.63;5078048;28;20068;-67
2023/03/05 08:40:12;;;;;;;2.33;0.75;;;;;;;-146.27;100.00;48395.59;5086173;28;20036;-67
2023/03/05 08:42:38;;;;;;;3.40;0.90;;;;;;;-146.27;100.00;48355.78;5086303;28;20023;-68
2023/03/05 08:45:03;;;;;;;4.20;0.80;;;;;;;-146.27;100.00;48399.59;5091321;28;20149;-68
2023/03/05 08:47:29;;;;;;;8.00;0.70;;;;;;;-146.27;100.00;48379.66;5088085;28;20025;-67
2023/03/05 08:49:56;;;;;;;3.35;0.70;;;;;;;-146.27;100.00;48359.75;5090195;28;20031;-67
2023/03/05 08:52:21;;;;;;;1.75;0.52;;;;;;;-146.27;100.00;48367.72;5086947;28;20047;-68
2023/03/05 08:54:47;;;;;;;2.33;0.60;;;;;;;-146.27;100.00;48371.69;5076893;28;20032;-66
2023/03/05 08:57:12;;;;;;;2.50;0.70;;;;;;;-146.27;100.00;48399.59;5084455;28;20028;-68
2023/03/05 08:59:37;;;;;;;2.65;0.60;;;;;;;-146.27;100.00;48365.72;5085773;28;20477;-68
2023/03/05 09:02:03;;;;;;;2.08;0.50;;;;;;;-146.27;100.00;48385.66;5090478;28;20109;-67
2023/03/05 09:04:28;;;;;;;3.85;0.50;;;;;;;-146.27;100.00;48381.66;5084133;28;20020;-67
2023/03/05 09:06:54;;;;;;;3.42;0.60;;;;;;;-146.27;100.00;48399.59;5081691;28;20141;-67
2023/03/05 09:09:20;;;;;;;3.25;0.52;;;;;;;-146.27;100.00;48395.59;5084469;28;20039;-68
2023/03/05 09:11:46;;;;;;;1.65;0.60;;;;;;;-146.27;100.00;48367.72;5086233;28;20063;-67
2023/03/05 09:14:11;;;;;;;3.03;0.50;;;;;;;-146.27;100.00;48351.78;5086557;28;20166;-67
2023/03/05 09:16:39;;;;;;;6.05;0.75;;;;;;;-146.27;100.00;48369.72;5089076;28;20031;-67
2023/03/05 09:19:05;;;;;;;3.47;0.52;;;;;;;-146.27;100.00;48369.72;5085820;28;20039;-68
2023/03/05 09:21:30;;;;;;;5.47;0.80;;;;;;;-146.27;100.00;48411.53;5089790;28;20028;-67
2023/03/05 09:23:58;;;;;;;5.38;0.77;;;;;;;-146.27;100.00;48411.53;5090698;28;20035;-67
2023/03/05 09:26:24;;;;;;;2.17;0.55;;;;;;;-146.27;100.00;48387.63;5089515;28;20040;-67
2023/03/05 09:28:49;;;;;;;2.30;0.50;;;;;;;-146.27;100.00;48395.59;5085365;28;20024;-67
2023/03/05 09:31:16;;;;;;;3.03;0.60;;;;;;;-146.27;100.00;48363.75;5088193;28;20025;-66
2023/03/05 09:33:43;;;;;;;5.55;0.57;;;;;;;-146.27;100.00;48363.75;5088886;28;20032;-67
2023/03/05 09:36:27;;;;;;;10.77;0.73;;;;;;;-146.27;100.00;48387.63;5087381;28;20050;-68
2023/03/05 09:38:53;;;;;;;4.90;0.88;;;;;;;-146.27;99.73;48381.66;5083583;28;20418;-68
2023/03/05 09:41:33;;;;;;;3.20;0.80;;;;;;;-146.27;100.00;48351.78;5089347;28;20104;-66
2023/03/05 09:44:04;;;;;;;1.65;0.40;;;;;;;-146.27;99.75;48371.69;5092271;28;20040;-67
2023/03/05 09:46:44;;;;;;;2.08;0.80;;;;;;;-146.27;99.30;48391.63;5095101;28;20104;-67
2023/03/05 09:49:27;;;;;;;3.13;0.60;;;;;;;-146.27;99.64;48385.66;5091504;28;20118;-67
2023/03/05 09:51:59;;;;;;;3.65;0.68;;;;;;;-146.27;99.43;48403.56;5087498;28;20020;-68
2023/03/05 09:54:34;;;;;;;3.28;0.50;;;;;;;-146.27;98.83;48399.59;5092969;28;20032;-68
2023/03/05 09:57:03;;;;;;;1.85;0.50;;;;;;;-146.27;99.28;48375.69;5092432;28;20027;-68
2023/03/05 10:00:00;;;;;;;2.28;0.30;;;;;;;-146.27;98.75;48397.59;5094589;28;20106;-70
2023/03/05 10:02:29;;;;;;;4.10;0.70;;;;;;;-146.27;98.34;48355.78;5070172;28;20050;-67
2023/03/05 10:05:07;;;;;;;5.90;0.80;;;;;;;-146.27;97.16;48385.66;5084884;28;20503;-67
2023/03/05 10:07:37;;;;;;;2.85;0.73;;;;;;;-146.27;97.31;48357.75;5093879;28;20026;-67
2023/03/05 10:10:13;;;;;;;6.32;0.68;;;;;;;-146.27;97.11;48367.72;5077418;28;20024;-66
2023/03/05 10:12:55;;;;;;;6.78;0.60;;;;;;;-146.27;97.18;48361.75;5092678;28;20122;-68
2023/03/05 10:15:36;;;;;;;1.08;0.30;;;;;;;-146.27;100.00;48359.75;5095712;28;20117;-67
2023/03/05 10:18:13;;;;;;;3.42;0.75;;;;;;;-146.27;100.00;48387.63;5093288;28;20111;-67
2023/03/05 10:20:52;;;;;;;2.05;0.40;;;;;;;-146.27;100.00;48381.66;5091382;28;20031;-67
2023/03/05 10:23:39;;;;;;;4.88;0.88;;;;;;;-146.27;100.00;48375.69;5080027;28;20028;-67
2023/03/05 10:26:11;;;;;;;2.63;0.80;;;;;;;-146.27;100.00;48359.75;5090680;28;20089;-66
2023/03/05 10:29:22;;;;;;;3.08;0.50;;;;;;;-146.27;100.00;48385.66;5093371;28;20023;-68
2023/03/05 10:32:11;;;;;;;2.78;0.50;;;;;;;-146.27;97.90;48391.63;5031132;28;20056;-65
2023/03/05 10:34:54;;;;;;;1.55;0.60;;;;;;;-146.27;94.92;48341.81;5048805;28;20071;-66
2023/03/05 10:37:25;;;;;;;2.47;0.80;;;;;;;-146.27;91.12;48381.66;5079999;28;20044;-67
2023/03/05 10:40:32;;;;;;;2.85;0.43;;;;;;;-146.27;88.43;48387.63;5090140;28;20027;-68
2023/03/05 10:43:00;;;;;;;1.05;0.25;;;;;;;-146.27;85.94;48367.72;5074899;28;20036;-68
2023/03/05 10:45:40;;;;;;;4.43;0.50;;;;;;;-146.27;84.92;48377.69;5087849;28;20402;-67
2023/03/05 10:48:24;;;;;;;3.28;0.52;;;;;;;-146.27;84.17;48339.84;5091175;28;20350;-68
2023/03/05 10:50:55;;;;;;;2.92;0.65;;;;;;;-146.27;78.44;48349.78;5083954;28;20476;-67
2023/03/05 10:53:34;;;;;;;1.20;0.50;;;;;;;-146.27;72.08;48341.81;5082463;28;20476;-66
2023/03/05 10:56:01;;;;;;;2.13;0.50;;;;;;;-146.27;72.49;48381.66;5088965;28;21239;-67
2023/03/05 10:58:27;;;;;;;0.63;0.22;;;;;;;-146.27;76.08;48359.75;5088720;28;20274;-67
2023/03/05 11:00:58;;;;;;;0.80;0.40;;;;;;;-146.27;75.14;48323.91;5088795;28;20030;-69
2023/03/05 11:03:24;;;;;;;5.78;0.73;;;;;;;-146.27;74.25;48353.78;5088316;28;20031;-66
2023/03/05 11:06:12;;;;;;;1.02;0.38;;;;;;;-146.27;71.51;48331.88;5090395;28;20050;-66
2023/03/05 11:08:37;;;;;;;2.42;0.50;;;;;;;-146.27;72.86;48307.97;5087210;28;20116;-67
2023/03/05 11:11:08;;;;;;;1.85;0.30;;;;;;;-146.27;66.56;48347.81;5082487;28;20103;-66
2023/03/05 11:13:52;;;;;;;2.33;0.55;;;;;;;-146.27;67.32;48385.66;5087208;28;20572;-67